createdAt,value
2022-10-12T00:00:35.794Z,3.72
2022-10-12T00:03:03.441Z,3.95
2022-10-12T00:05:31.129Z,3.92
2022-10-12T00:07:58.714Z,3.75
2022-10-12T00:10:27.791Z,4.05
2022-10-12T00:12:55.434Z,3.90
2022-10-12T00:15:23.025Z,3.78
2022-10-12T00:17:50.650Z,4.55
2022-10-12T00:20:18.425Z,4.10
2022-10-12T00:22:46.100Z,3.85
2022-10-12T00:25:13.702Z,3.80
2022-10-12T00:27:42.703Z,3.90
2022-10-12T00:30:11.806Z,3.95
2022-10-12T00:32:39.478Z,3.83
2022-10-12T00:35:07.718Z,3.80
2022-10-12T00:37:35.525Z,4.40
2022-10-12T00:40:03.421Z,3.80
2022-10-12T00:42:31.050Z,4.32
2022-10-12T00:45:00.085Z,4.07
2022-10-12T00:47:29.393Z,3.80
2022-10-12T00:49:59.257Z,4.00
2022-10-12T00:52:30.422Z,4.07
2022-10-12T00:54:58.429Z,3.83
2022-10-12T00:57:26.118Z,3.97
2022-10-12T00:59:55.561Z,4.55
2022-10-12T01:02:24.646Z,4.50
2022-10-12T01:04:52.270Z,4.05
2022-10-12T01:07:20.055Z,4.38
2022-10-12T01:09:47.661Z,4.35
2022-10-12T01:12:15.254Z,4.10
2022-10-12T01:14:42.904Z,4.63
2022-10-12T01:17:16.528Z,4.82
2022-10-12T01:20:17.551Z,4.25
2022-10-12T01:22:46.756Z,3.83
2022-10-12T01:25:20.986Z,4.30
2022-10-12T01:27:48.661Z,4.53
2022-10-12T01:30:20.331Z,4.18
2022-10-12T01:33:18.301Z,4.50
2022-10-12T01:35:51.120Z,4.43
2022-10-12T01:38:26.099Z,4.45
2022-10-12T01:40:58.301Z,4.00
2022-10-12T01:43:34.045Z,4.30
2022-10-12T01:46:08.194Z,4.47
2022-10-12T01:48:35.818Z,4.05
2022-10-12T01:51:03.525Z,4.28
2022-10-12T01:53:34.351Z,4.38
2022-10-12T01:56:04.817Z,4.18
2022-10-12T01:58:36.204Z,4.32
2022-10-12T02:01:08.780Z,4.60
2022-10-12T02:03:37.891Z,4.50
2022-10-12T02:06:07.680Z,4.18
2022-10-12T02:08:36.853Z,4.47
2022-10-12T02:11:06.066Z,4.38
2022-10-12T02:13:35.405Z,4.30
2022-10-12T02:16:03.812Z,4.28
2022-10-12T02:18:32.775Z,4.30
2022-10-12T02:21:00.411Z,4.32
2022-10-12T02:23:28.067Z,4.50
2022-10-12T02:25:55.715Z,4.25
2022-10-12T02:28:24.690Z,4.13
2022-10-12T02:30:55.338Z,4.45
2022-10-12T02:33:24.918Z,4.53
2022-10-12T02:35:57.245Z,4.30
2022-10-12T02:38:27.707Z,4.40
2022-10-12T02:40:56.704Z,4.70
2022-10-12T02:43:25.351Z,3.85
2022-10-12T02:45:53.030Z,4.35
2022-10-12T02:48:23.164Z,4.50
2022-10-12T02:50:51.338Z,4.40
2022-10-12T02:53:20.314Z,4.75
2022-10-12T02:55:49.273Z,4.50
2022-10-12T02:58:16.921Z,4.28
2022-10-12T03:00:44.553Z,4.78
2022-10-12T03:03:12.260Z,4.30
2022-10-12T03:05:40.423Z,4.47
2022-10-12T03:08:08.227Z,4.68
2022-10-12T03:10:37.234Z,4.65
2022-10-12T03:13:04.821Z,4.15
2022-10-12T03:15:32.421Z,4.50
2022-10-12T03:18:00.037Z,4.35
2022-10-12T03:20:27.668Z,4.32
2022-10-12T03:22:55.332Z,4.53
2022-10-12T03:25:22.994Z,4.22
2022-10-12T03:27:52.021Z,4.20
2022-10-12T03:30:19.656Z,4.40
2022-10-12T03:32:47.357Z,4.25
2022-10-12T03:35:15.153Z,4.30
2022-10-12T03:37:42.792Z,4.35
2022-10-12T03:40:11.635Z,3.95
2022-10-12T03:42:39.325Z,4.30
2022-10-12T03:45:09.847Z,4.38
2022-10-12T03:47:38.106Z,4.65
2022-10-12T03:50:06.707Z,4.32
2022-10-12T03:52:34.310Z,4.20
2022-10-12T03:55:01.931Z,4.28
2022-10-12T03:57:29.518Z,4.35
2022-10-12T03:59:57.193Z,4.03
2022-10-12T04:02:26.159Z,4.03
2022-10-12T04:04:53.825Z,4.55
2022-10-12T04:07:21.419Z,4.20
2022-10-12T04:09:49.119Z,4.70
2022-10-12T04:12:16.769Z,4.07
2022-10-12T04:14:44.364Z,4.35
2022-10-12T04:17:12.541Z,4.50
2022-10-12T04:19:41.541Z,4.20
2022-10-12T04:22:09.161Z,4.43
2022-10-12T04:24:36.759Z,4.13
2022-10-12T04:27:04.628Z,3.88
2022-10-12T04:29:32.347Z,4.38
2022-10-12T04:32:00.036Z,4.07
2022-10-12T04:34:27.862Z,4.50
2022-10-12T04:36:56.877Z,4.47
2022-10-12T04:39:24.502Z,4.18
2022-10-12T04:41:52.178Z,3.70
2022-10-12T04:44:19.797Z,3.85
2022-10-12T04:46:47.474Z,4.10
2022-10-12T04:49:16.145Z,3.58
2022-10-12T04:51:43.841Z,3.53
2022-10-12T04:54:12.979Z,3.65
2022-10-12T04:56:44.196Z,3.92
2022-10-12T04:59:14.743Z,4.03
2022-10-12T05:01:42.451Z,3.80
2022-10-12T05:04:10.281Z,4.07
2022-10-12T05:06:37.922Z,4.07
2022-10-12T05:09:05.567Z,3.80
2022-10-12T05:11:34.688Z,4.00
2022-10-12T05:14:02.373Z,3.70
2022-10-12T05:16:30.037Z,4.63
2022-10-12T05:18:57.728Z,3.80
2022-10-12T05:21:25.382Z,3.90
2022-10-12T05:23:53.181Z,3.75
2022-10-12T05:26:20.891Z,3.90
2022-10-12T05:28:50.013Z,3.78
2022-10-12T05:31:17.721Z,4.30
2022-10-12T05:33:45.491Z,3.72
2022-10-12T05:36:13.167Z,4.05
2022-10-12T05:38:40.860Z,4.00
2022-10-12T05:41:08.603Z,3.58
2022-10-12T05:43:36.262Z,4.22
2022-10-12T05:46:05.677Z,3.75
2022-10-12T05:48:39.859Z,4.15
2022-10-12T05:51:07.674Z,4.15
2022-10-12T05:53:35.362Z,4.45
2022-10-12T05:56:03.131Z,3.90
2022-10-12T05:58:32.043Z,3.83
2022-10-12T06:01:07.118Z,10.13
2022-10-12T06:03:35.262Z,9.43
2022-10-12T06:06:03.357Z,8.18
2022-10-12T06:08:31.085Z,7.55
2022-10-12T06:10:58.711Z,7.20
2022-10-12T06:13:26.555Z,6.78
2022-10-12T06:15:54.290Z,6.80
2022-10-12T06:18:23.326Z,6.78
2022-10-12T06:21:08.673Z,6.50
2022-10-12T06:23:39.754Z,6.32
2022-10-12T06:26:07.498Z,6.05
2022-10-12T06:28:35.243Z,6.20
2022-10-12T06:31:02.964Z,6.90
2022-10-12T06:33:31.981Z,5.75
2022-10-12T06:35:59.594Z,6.30
2022-10-12T06:38:27.200Z,6.20
2022-10-12T06:40:54.824Z,6.53
2022-10-12T06:43:24.165Z,6.25
2022-10-12T06:45:51.846Z,6.38
2022-10-12T06:48:19.469Z,5.32
2022-10-12T06:50:48.854Z,5.30
2022-10-12T06:53:16.462Z,5.05
2022-10-12T06:55:44.044Z,5.40
2022-10-12T06:58:11.650Z,5.43
2022-10-12T07:00:39.366Z,5.55
2022-10-12T07:03:07.070Z,5.25
2022-10-12T07:05:34.748Z,4.90
2022-10-12T07:08:03.773Z,4.90
2022-10-12T07:10:31.397Z,4.93
2022-10-12T07:12:59.035Z,5.57
2022-10-12T07:15:26.825Z,5.07
2022-10-12T07:17:54.484Z,5.13
2022-10-12T07:20:22.201Z,5.68
2022-10-12T07:22:49.830Z,5.10
2022-10-12T07:25:18.977Z,4.82
2022-10-12T07:27:48.309Z,5.05
2022-10-12T07:30:16.257Z,4.55
2022-10-12T07:32:44.866Z,4.68
2022-10-12T07:35:12.500Z,4.90
2022-10-12T07:37:40.487Z,4.85
2022-10-12T07:40:09.661Z,4.68
2022-10-12T07:42:53.734Z,4.45
2022-10-12T07:45:46.525Z,4.93
2022-10-12T07:48:14.274Z,4.60
2022-10-12T07:50:41.946Z,4.20
2022-10-12T07:53:09.662Z,4.30
2022-10-12T07:55:37.327Z,4.53
2022-10-12T07:58:06.367Z,4.80
2022-10-12T08:00:34.138Z,4.88
2022-10-12T08:03:01.815Z,4.40
2022-10-12T08:05:29.502Z,4.60
2022-10-12T08:07:57.262Z,4.57
2022-10-12T08:10:24.878Z,4.63
2022-10-12T08:12:52.528Z,4.70
2022-10-12T08:15:21.614Z,4.68
2022-10-12T08:17:49.282Z,4.43
2022-10-12T08:20:17.118Z,4.32
2022-10-12T08:22:44.776Z,4.25
2022-10-12T08:25:12.459Z,4.53
2022-10-12T08:27:40.427Z,4.30
2022-10-12T08:30:09.341Z,4.40
2022-10-12T08:32:38.411Z,4.18
2022-10-12T08:35:06.786Z,4.82
2022-10-12T08:37:34.506Z,4.00
2022-10-12T08:40:03.473Z,4.68
2022-10-12T08:42:39.918Z,4.97
2022-10-12T08:45:31.372Z,4.43
2022-10-12T08:48:01.568Z,4.38
2022-10-12T08:50:32.093Z,4.00
2022-10-12T08:53:02.202Z,4.20
2022-10-12T08:55:35.769Z,4.15
2022-10-12T08:58:03.646Z,4.18
2022-10-12T09:00:31.682Z,4.10
2022-10-12T09:03:08.341Z,4.30
2022-10-12T09:05:38.489Z,4.13
2022-10-12T09:08:08.153Z,4.10
2022-10-12T09:10:44.250Z,4.20
2022-10-12T09:13:17.471Z,3.90
2022-10-12T09:15:47.630Z,3.60
2022-10-12T09:18:18.046Z,4.13
2022-10-12T09:20:47.749Z,4.15
2022-10-12T09:23:23.661Z,4.25
2022-10-12T09:25:51.349Z,4.50
2022-10-12T09:28:22.217Z,4.50
2022-10-12T09:31:03.529Z,4.20
2022-10-12T09:33:33.663Z,4.10
2022-10-12T09:36:01.378Z,4.22
2022-10-12T09:38:29.024Z,4.60
2022-10-12T09:40:56.647Z,4.43
2022-10-12T09:43:24.309Z,3.88
2022-10-12T09:45:51.942Z,4.10
2022-10-12T09:48:20.565Z,4.07
2022-10-12T09:50:54.714Z,3.58
2022-10-12T09:53:27.841Z,3.90
2022-10-12T09:55:57.941Z,4.28
2022-10-12T09:58:25.605Z,4.05
2022-10-12T10:01:19.262Z,4.20
2022-10-12T10:03:47.958Z,4.35
2022-10-12T10:06:16.993Z,4.22
2022-10-12T10:08:45.514Z,4.25
2022-10-12T10:11:17.515Z,3.88
2022-10-12T10:13:48.193Z,3.88
2022-10-12T10:16:16.571Z,3.95
2022-10-12T10:18:44.847Z,4.05
2022-10-12T10:21:14.330Z,3.90
2022-10-12T10:23:44.948Z,3.50
2022-10-12T10:26:15.001Z,4.05
2022-10-12T10:28:43.190Z,3.97
2022-10-12T10:31:21.511Z,3.83
2022-10-12T10:34:04.943Z,4.10
2022-10-12T10:36:32.651Z,4.03
2022-10-12T10:39:04.762Z,3.75
2022-10-12T10:41:33.144Z,3.92
2022-10-12T10:44:00.838Z,3.55
2022-10-12T10:46:30.578Z,3.90
2022-10-12T10:49:01.618Z,3.80
2022-10-12T10:51:42.973Z,4.10
2022-10-12T10:54:26.893Z,3.90
2022-10-12T10:56:56.444Z,4.28
2022-10-12T10:59:29.962Z,3.88
2022-10-12T11:01:59.083Z,3.83
2022-10-12T11:04:28.017Z,4.00
2022-10-12T11:06:57.094Z,3.72
2022-10-12T11:09:29.896Z,4.20
2022-10-12T11:11:58.500Z,4.43
2022-10-12T11:14:34.736Z,5.53
2022-10-12T11:17:04.155Z,5.25
2022-10-12T11:19:36.619Z,5.05
2022-10-12T11:22:05.153Z,5.72
2022-10-12T11:24:36.468Z,5.25
2022-10-12T11:27:05.211Z,5.07
2022-10-12T11:29:32.914Z,5.53
2022-10-12T11:32:04.213Z,5.88
2022-10-12T11:34:33.742Z,6.38
2022-10-12T11:37:19.118Z,6.47
2022-10-12T11:39:56.065Z,6.55
2022-10-12T11:42:29.249Z,6.38
2022-10-12T11:44:56.918Z,6.05
2022-10-12T11:47:29.178Z,6.15
2022-10-12T11:49:58.434Z,6.10
2022-10-12T11:52:28.971Z,5.65
2022-10-12T11:55:00.625Z,6.30
2022-10-12T11:57:29.757Z,6.30
2022-10-12T11:59:58.145Z,6.10
2022-10-12T12:02:27.186Z,6.22
2022-10-12T12:04:55.423Z,6.43
2022-10-12T12:07:43.358Z,5.90
2022-10-12T12:10:51.118Z,5.25
2022-10-12T12:13:22.946Z,5.80
2022-10-12T12:16:30.701Z,6.00
2022-10-12T12:19:20.782Z,5.45
2022-10-12T12:22:26.305Z,5.75
2022-10-12T12:25:12.757Z,5.53
2022-10-12T12:27:42.958Z,5.28
2022-10-12T12:30:27.284Z,5.40
2022-10-12T12:32:55.702Z,5.88
2022-10-12T12:35:26.417Z,5.78
2022-10-12T12:38:08.285Z,5.40
2022-10-12T12:40:35.967Z,5.63
2022-10-12T12:43:39.788Z,5.43
2022-10-12T12:46:08.158Z,5.95
2022-10-12T12:49:04.431Z,5.97
2022-10-12T12:51:38.265Z,5.55
2022-10-12T12:54:07.524Z,5.50
2022-10-12T12:56:39.306Z,5.60
2022-10-12T12:59:22.757Z,5.22
2022-10-12T13:02:01.090Z,5.43
2022-10-12T13:04:54.422Z,5.22
2022-10-12T13:07:51.879Z,5.53
2022-10-12T13:10:27.862Z,5.30
2022-10-12T13:13:10.229Z,5.43
2022-10-12T13:15:44.231Z,5.18
2022-10-12T13:18:45.873Z,4.97
2022-10-12T13:21:16.826Z,5.22
2022-10-12T13:23:45.283Z,5.38
2022-10-12T13:26:15.407Z,5.15
2022-10-12T13:28:44.034Z,5.35
2022-10-12T13:31:15.624Z,5.40
2022-10-12T13:33:46.526Z,5.28
2022-10-12T13:36:19.621Z,5.43
2022-10-12T13:38:47.259Z,4.72
2022-10-12T13:41:15.633Z,5.07
2022-10-12T13:43:46.862Z,5.18
2022-10-12T13:46:37.025Z,4.60
2022-10-12T13:49:05.126Z,5.07
2022-10-12T13:51:32.763Z,5.35
2022-10-12T13:54:00.431Z,5.15
2022-10-12T13:56:29.170Z,5.05
2022-10-12T13:58:58.346Z,5.47
2022-10-12T14:01:27.454Z,4.57
2022-10-12T14:04:03.085Z,4.60
2022-10-12T14:06:32.177Z,4.50
2022-10-12T14:09:00.717Z,5.05
2022-10-12T14:11:28.388Z,4.82
2022-10-12T14:13:56.640Z,4.78
2022-10-12T14:16:24.309Z,5.10
2022-10-12T14:18:53.297Z,5.15
2022-10-12T14:21:23.601Z,4.90
2022-10-12T14:23:52.545Z,4.93
2022-10-12T14:26:30.753Z,4.75
2022-10-12T14:28:58.870Z,4.95
2022-10-12T14:31:49.559Z,5.18
2022-10-12T14:34:28.664Z,4.85
2022-10-12T14:37:02.742Z,4.57
2022-10-12T14:39:30.424Z,4.78
2022-10-12T14:41:58.271Z,5.00
2022-10-12T14:44:26.782Z,6.95
2022-10-12T14:46:55.858Z,6.57
2022-10-12T14:49:25.719Z,6.38
2022-10-12T14:51:54.233Z,5.88
2022-10-12T14:54:22.006Z,5.50
2022-10-12T14:56:49.804Z,6.43
2022-10-12T14:59:17.440Z,5.82
2022-10-12T15:01:47.596Z,5.55
2022-10-12T15:04:17.917Z,5.50
2022-10-12T15:06:50.675Z,5.93
2022-10-12T15:09:18.831Z,5.38
2022-10-12T15:11:46.541Z,5.43
2022-10-12T15:14:14.445Z,5.15
2022-10-12T15:16:42.131Z,5.53
2022-10-12T15:19:09.791Z,5.20
2022-10-12T15:21:37.507Z,5.65
2022-10-12T15:24:12.263Z,4.80
2022-10-12T15:26:42.404Z,5.03
2022-10-12T15:29:10.281Z,4.63
2022-10-12T15:31:38.017Z,5.03
2022-10-12T15:34:07.641Z,4.97
2022-10-12T15:36:35.374Z,4.65
2022-10-12T15:39:03.087Z,4.85
2022-10-12T15:41:32.156Z,4.55
2022-10-12T15:43:59.854Z,5.40
2022-10-12T15:46:27.869Z,5.10
2022-10-12T15:48:55.576Z,4.68
2022-10-12T15:51:23.906Z,4.80
2022-10-12T15:53:52.773Z,4.80
2022-10-12T15:56:20.489Z,4.80
2022-10-12T15:58:49.599Z,4.78
2022-10-12T16:01:18.595Z,4.80
2022-10-12T16:03:46.457Z,5.13
2022-10-12T16:06:14.166Z,4.93
2022-10-12T16:08:41.931Z,4.70
2022-10-12T16:11:10.735Z,4.82
2022-10-12T16:13:45.419Z,4.43
2022-10-12T16:16:16.237Z,4.43
2022-10-12T16:19:02.971Z,4.57
2022-10-12T16:21:32.705Z,4.85
2022-10-12T16:24:00.359Z,4.82
2022-10-12T16:26:28.020Z,4.80
2022-10-12T16:28:55.732Z,4.80
2022-10-12T16:31:24.897Z,4.55
2022-10-12T16:33:52.590Z,4.50
2022-10-12T16:36:20.231Z,4.20
2022-10-12T16:38:47.930Z,4.60
2022-10-12T16:41:16.431Z,4.70
2022-10-12T16:43:44.228Z,4.80
2022-10-12T16:46:11.943Z,4.60
2022-10-12T16:48:41.038Z,4.63
2022-10-12T16:51:09.241Z,4.15
2022-10-12T16:53:37.001Z,4.30
2022-10-12T16:56:04.822Z,4.70
2022-10-12T16:58:33.008Z,4.30
2022-10-12T17:01:09.013Z,4.57
2022-10-12T17:03:36.754Z,4.40
2022-10-12T17:06:06.053Z,4.28
2022-10-12T17:08:34.735Z,4.43
2022-10-12T17:11:06.279Z,4.35
2022-10-12T17:13:36.357Z,4.18
2022-10-12T17:16:25.417Z,4.40
2022-10-12T17:18:58.196Z,4.03
2022-10-12T17:21:28.603Z,4.20
2022-10-12T17:23:57.082Z,4.20
2022-10-12T17:26:24.806Z,4.40
2022-10-12T17:28:52.554Z,4.00
2022-10-12T17:31:20.328Z,4.03
2022-10-12T17:33:49.086Z,4.07
2022-10-12T17:36:16.923Z,4.15
2022-10-12T17:38:46.074Z,4.13
2022-10-12T17:41:13.795Z,3.97
2022-10-12T17:43:41.558Z,3.60
2022-10-12T17:46:09.313Z,3.92
2022-10-12T17:48:37.074Z,4.25
2022-10-12T17:51:06.046Z,4.22
2022-10-12T17:53:33.749Z,4.15
2022-10-12T17:56:03.294Z,4.10
2022-10-12T17:58:31.234Z,4.55
2022-10-12T18:00:59.066Z,4.07
2022-10-12T18:03:28.180Z,4.00
2022-10-12T18:05:55.846Z,4.00
2022-10-12T18:08:23.510Z,4.20
2022-10-12T18:10:51.245Z,3.95
2022-10-12T18:13:20.325Z,4.30
2022-10-12T18:15:48.076Z,4.15
2022-10-12T18:18:15.849Z,3.97
2022-10-12T18:20:43.527Z,3.70
2022-10-12T18:23:11.184Z,3.78
2022-10-12T18:25:38.921Z,4.35
2022-10-12T18:28:06.662Z,3.63
2022-10-12T18:30:35.766Z,4.20
2022-10-12T18:33:03.426Z,4.15
2022-10-12T18:35:31.322Z,4.00
2022-10-12T18:37:59.285Z,4.10
2022-10-12T18:40:26.992Z,3.90
2022-10-12T18:42:54.718Z,3.85
2022-10-12T18:45:22.459Z,4.20
2022-10-12T18:47:51.607Z,3.88
2022-10-12T18:50:19.325Z,4.18
2022-10-12T18:52:46.955Z,3.78
2022-10-12T18:55:14.630Z,4.20
2022-10-12T18:57:42.349Z,4.28
2022-10-12T19:00:10.934Z,4.07
2022-10-12T19:02:38.583Z,3.72
2022-10-12T19:05:08.326Z,3.70
2022-10-12T19:07:36.413Z,4.30
2022-10-12T19:10:07.042Z,4.88
2022-10-12T19:12:34.890Z,5.00
2022-10-12T19:15:02.983Z,4.53
2022-10-12T19:17:31.939Z,4.32
2022-10-12T19:19:59.626Z,4.63
2022-10-12T19:22:28.675Z,4.30
2022-10-12T19:24:56.296Z,4.38
2022-10-12T19:27:23.933Z,4.15
2022-10-12T19:29:52.001Z,4.15
2022-10-12T19:32:20.112Z,4.72
2022-10-12T19:34:48.228Z,4.13
2022-10-12T19:37:15.869Z,4.07
2022-10-12T19:39:47.163Z,4.15
2022-10-12T19:42:14.928Z,3.88
2022-10-12T19:44:42.792Z,3.92
2022-10-12T19:47:10.487Z,4.50
2022-10-12T19:49:41.932Z,4.35
2022-10-12T19:52:12.209Z,3.97
2022-10-12T19:54:39.882Z,4.10
2022-10-12T19:57:08.917Z,4.57
2022-10-12T19:59:36.597Z,4.10
2022-10-12T20:02:04.247Z,4.03
2022-10-12T20:04:31.873Z,3.80
2022-10-12T20:06:59.825Z,4.10
2022-10-12T20:09:27.487Z,3.95
2022-10-12T20:11:55.089Z,3.92
2022-10-12T20:14:25.544Z,4.10
2022-10-12T20:16:54.442Z,4.60
2022-10-12T20:19:22.096Z,4.55
2022-10-12T20:21:49.737Z,4.70
2022-10-12T20:24:17.450Z,3.90
2022-10-12T20:26:45.106Z,4.30
2022-10-12T20:29:12.831Z,4.63
2022-10-12T20:31:41.847Z,4.20
2022-10-12T20:34:09.486Z,4.53
2022-10-12T20:36:37.176Z,4.30
2022-10-12T20:39:04.906Z,4.50
2022-10-12T20:41:32.612Z,4.93
2022-10-12T20:44:00.968Z,4.60
2022-10-12T20:46:29.077Z,5.13
2022-10-12T20:48:59.175Z,4.93
2022-10-12T20:51:28.698Z,4.65
2022-10-12T20:53:58.908Z,4.70
2022-10-12T20:56:26.533Z,4.65
2022-10-12T20:58:54.301Z,4.07
2022-10-12T21:01:22.076Z,4.53
2022-10-12T21:03:49.946Z,4.90
2022-10-12T21:06:20.476Z,4.63
2022-10-12T21:08:50.050Z,4.03
2022-10-12T21:11:17.904Z,4.00
2022-10-12T21:13:46.028Z,4.40
2022-10-12T21:16:14.142Z,4.45
2022-10-12T21:18:41.974Z,4.40
2022-10-12T21:21:12.690Z,4.40
2022-10-12T21:23:42.162Z,4.30
2022-10-12T21:26:10.274Z,4.50
2022-10-12T21:28:37.974Z,4.40
2022-10-12T21:31:05.794Z,4.22
2022-10-12T21:33:34.081Z,4.10
2022-10-12T21:36:09.126Z,4.70
2022-10-12T21:38:36.819Z,4.35
2022-10-12T21:41:06.226Z,4.30
2022-10-12T21:43:33.847Z,3.92
2022-10-12T21:46:05.180Z,4.15
2022-10-12T21:48:32.931Z,4.63
2022-10-12T21:51:00.875Z,4.07
2022-10-12T21:53:28.699Z,4.35
2022-10-12T21:55:56.357Z,4.18
2022-10-12T21:58:25.558Z,3.58
2022-10-12T22:00:53.272Z,4.28
2022-10-12T22:03:20.973Z,4.03
2022-10-12T22:05:48.594Z,4.28
2022-10-12T22:08:16.216Z,4.35
2022-10-12T22:10:43.817Z,4.07
2022-10-12T22:13:11.466Z,4.60
2022-10-12T22:15:40.488Z,4.38
2022-10-12T22:18:08.142Z,4.20
2022-10-12T22:20:36.970Z,4.20
2022-10-12T22:23:04.618Z,4.10
2022-10-12T22:25:32.291Z,3.85
2022-10-12T22:27:59.933Z,4.40
2022-10-12T22:30:27.642Z,4.15
2022-10-12T22:32:56.699Z,4.13
2022-10-12T22:35:24.906Z,4.13
2022-10-12T22:37:52.501Z,4.38
2022-10-12T22:40:20.257Z,3.72
2022-10-12T22:42:47.897Z,3.70
2022-10-12T22:45:16.178Z,3.97
2022-10-12T22:47:43.797Z,3.95
2022-10-12T22:50:12.886Z,3.83
2022-10-12T22:52:40.549Z,3.90
2022-10-12T22:55:09.194Z,4.20
2022-10-12T22:57:36.880Z,3.80
2022-10-12T23:00:05.252Z,3.80
2022-10-12T23:02:32.899Z,3.53
2022-10-12T23:05:00.562Z,3.55
2022-10-12T23:07:29.568Z,4.18
2022-10-12T23:09:57.190Z,3.58
2022-10-12T23:12:24.842Z,3.60
2022-10-12T23:14:52.469Z,3.85
2022-10-12T23:17:20.158Z,4.00
2022-10-12T23:19:47.805Z,3.80
2022-10-12T23:22:15.610Z,3.80
2022-10-12T23:24:44.795Z,4.00
2022-10-12T23:27:12.421Z,3.88
2022-10-12T23:29:40.111Z,3.90
2022-10-12T23:32:07.737Z,3.35
2022-10-12T23:34:35.354Z,3.38
2022-10-12T23:37:03.214Z,3.83
2022-10-12T23:39:30.934Z,3.33
2022-10-12T23:41:59.943Z,3.70
2022-10-12T23:44:27.578Z,3.42
2022-10-12T23:46:55.262Z,3.60
2022-10-12T23:49:23.035Z,3.50
2022-10-12T23:51:50.633Z,3.72
2022-10-12T23:54:18.286Z,3.90
2022-10-12T23:56:45.913Z,3.90
2022-10-12T23:59:15.191Z,3.53
